N653J URWW-URSS
Flight info
| Callsign | N653J |
|---|---|
| Flight time | 1h 20m |
| Altitude | 40000 |
| Route | TONGI R807 KISEL A964 STW/K0783F240 W40 GUBOR G487 BINOL |
| Aircraft | CL60/M-SBDE1E2E3FGHIJ1J4J5J7M3RWXYZ/LB1V1D1 |
Departure
| Time | 2026-05-04 16:56 |
|---|---|
| Airport | Volgograd International Airport (URWW) |
Arrival
| Time | 2026-05-04 18:17 |
|---|---|
| Airport | Sochi International Airport (URSS) |
| Time | Latitude | Longitude | Altitude | Speed | Heading |
|---|---|---|---|---|---|
| 2026-05-04 16:21 | 48.78971 | 44.35043 | 465 ft | 0 kts | 339° |
| 2026-05-04 16:45 | 48.78948 | 44.35056 | 465 ft | 2 kts | 339° |
| 2026-05-04 16:46 | 48.78910 | 44.35077 | 465 ft | 1 kts | 332° |
| 2026-05-04 16:46 | 48.78909 | 44.35107 | 466 ft | 0 kts | 215° |
| 2026-05-04 16:47 | 48.78911 | 44.35110 | 466 ft | 0 kts | 214° |
| 2026-05-04 16:49 | 48.78869 | 44.35038 | 465 ft | 11 kts | 248° |
| 2026-05-04 16:50 | 48.78783 | 44.34695 | 455 ft | 24 kts | 249° |
| 2026-05-04 16:50 | 48.78704 | 44.34384 | 448 ft | 20 kts | 248° |
| 2026-05-04 16:51 | 48.78594 | 44.34145 | 445 ft | 12 kts | 168° |
| 2026-05-04 16:51 | 48.78505 | 44.34182 | 448 ft | 13 kts | 164° |
| 2026-05-04 16:51 | 48.78365 | 44.34049 | 445 ft | 17 kts | 244° |
| 2026-05-04 16:52 | 48.78224 | 44.33604 | 434 ft | 29 kts | 244° |
| 2026-05-04 16:52 | 48.78131 | 44.33312 | 430 ft | 33 kts | 244° |
| 2026-05-04 16:53 | 48.77976 | 44.32824 | 421 ft | 24 kts | 244° |
| 2026-05-04 16:53 | 48.77716 | 44.32007 | 401 ft | 25 kts | 244° |
| 2026-05-04 16:54 | 48.77664 | 44.31841 | 395 ft | 13 kts | 244° |
| 2026-05-04 16:55 | 48.77587 | 44.31789 | 396 ft | 5 kts | 158° |
| 2026-05-04 16:55 | 48.77504 | 44.31882 | 399 ft | 9 kts | 96° |
| 2026-05-04 16:56 | 48.77554 | 44.32071 | 403 ft | 46 kts | 65° |
| 2026-05-04 16:56 | 48.78723 | 44.35935 | 1488 ft | 178 kts | 66° |
| 2026-05-04 16:57 | 48.79227 | 44.37630 | 2169 ft | 176 kts | 64° |
| 2026-05-04 16:57 | 48.80278 | 44.40940 | 3502 ft | 176 kts | 63° |
| 2026-05-04 16:58 | 48.81911 | 44.46029 | 5385 ft | 213 kts | 63° |
| 2026-05-04 16:58 | 48.82614 | 44.48210 | 6350 ft | 244 kts | 63° |
| 2026-05-04 16:59 | 48.84135 | 44.52950 | 9079 ft | 267 kts | 63° |
| 2026-05-04 17:00 | 48.87438 | 44.63629 | 14332 ft | 296 kts | 75° |
| 2026-05-04 17:00 | 48.84779 | 44.71605 | 17758 ft | 324 kts | 155° |
| 2026-05-04 17:01 | 48.81158 | 44.73581 | 19403 ft | 335 kts | 160° |
| 2026-05-04 17:01 | 48.76995 | 44.75831 | 21188 ft | 344 kts | 161° |
| 2026-05-04 17:02 | 48.72476 | 44.78278 | 22969 ft | 351 kts | 163° |
| 2026-05-04 17:02 | 48.67789 | 44.80817 | 24669 ft | 361 kts | 163° |
| 2026-05-04 17:03 | 48.65435 | 44.82094 | 25546 ft | 363 kts | 163° |
| 2026-05-04 17:03 | 48.63047 | 44.83387 | 26347 ft | 368 kts | 163° |
| 2026-05-04 17:03 | 48.58002 | 44.83982 | 27884 ft | 365 kts | 195° |
| 2026-05-04 17:04 | 48.53255 | 44.80675 | 29214 ft | 371 kts | 208° |
| 2026-05-04 17:04 | 48.48577 | 44.77004 | 30480 ft | 379 kts | 208° |
| 2026-05-04 17:05 | 48.43783 | 44.73251 | 31575 ft | 387 kts | 208° |
| 2026-05-04 17:05 | 48.38943 | 44.69472 | 32550 ft | 395 kts | 208° |
| 2026-05-04 17:06 | 48.33938 | 44.65574 | 33424 ft | 403 kts | 207° |
| 2026-05-04 17:06 | 48.31440 | 44.63632 | 33855 ft | 405 kts | 207° |
| 2026-05-04 17:07 | 48.26447 | 44.59757 | 34788 ft | 405 kts | 207° |
| 2026-05-04 17:07 | 48.25599 | 44.59099 | 34939 ft | 405 kts | 207° |
| 2026-05-04 17:07 | 48.21443 | 44.55882 | 35686 ft | 402 kts | 207° |
| 2026-05-04 17:07 | 48.18933 | 44.53941 | 36087 ft | 401 kts | 207° |
| 2026-05-04 17:08 | 48.16463 | 44.52034 | 36542 ft | 401 kts | 207° |
| 2026-05-04 17:08 | 48.11535 | 44.48235 | 37376 ft | 400 kts | 207° |
| 2026-05-04 17:08 | 48.09063 | 44.46333 | 37734 ft | 400 kts | 207° |
| 2026-05-04 17:09 | 48.06599 | 44.44439 | 38073 ft | 399 kts | 207° |
| 2026-05-04 17:09 | 48.04138 | 44.42549 | 38405 ft | 399 kts | 207° |
| 2026-05-04 17:09 | 48.01679 | 44.40663 | 38721 ft | 398 kts | 207° |
| 2026-05-04 17:10 | 47.96774 | 44.36907 | 39323 ft | 396 kts | 207° |
| 2026-05-04 17:10 | 47.89089 | 44.32594 | 39915 ft | 397 kts | 194° |
| 2026-05-04 17:11 | 47.83670 | 44.30645 | 40014 ft | 407 kts | 194° |
| 2026-05-04 17:11 | 47.78105 | 44.28641 | 40020 ft | 418 kts | 194° |
| 2026-05-04 17:12 | 47.75266 | 44.27621 | 40017 ft | 424 kts | 194° |
| 2026-05-04 17:13 | 47.60601 | 44.22367 | 40012 ft | 444 kts | 193° |
| 2026-05-04 17:14 | 47.48464 | 44.18042 | 40017 ft | 446 kts | 193° |
| 2026-05-04 17:15 | 47.39369 | 44.14814 | 40012 ft | 445 kts | 193° |
| 2026-05-04 17:16 | 47.27328 | 44.10557 | 40011 ft | 445 kts | 193° |
| 2026-05-04 17:17 | 47.15303 | 44.06327 | 40020 ft | 445 kts | 193° |
| 2026-05-04 17:18 | 47.03287 | 44.02119 | 40024 ft | 445 kts | 193° |
| 2026-05-04 17:19 | 46.91212 | 43.97933 | 40011 ft | 446 kts | 193° |
| 2026-05-04 17:20 | 46.79144 | 43.93783 | 39995 ft | 445 kts | 193° |
| 2026-05-04 17:20 | 46.70135 | 43.90697 | 39997 ft | 444 kts | 193° |
| 2026-05-04 17:21 | 46.58157 | 43.86610 | 39990 ft | 443 kts | 193° |
| 2026-05-04 17:22 | 46.52164 | 43.84572 | 39985 ft | 444 kts | 193° |
| 2026-05-04 17:23 | 46.40178 | 43.80515 | 39998 ft | 443 kts | 193° |
| 2026-05-04 17:24 | 46.31186 | 43.77484 | 39998 ft | 443 kts | 193° |
| 2026-05-04 17:25 | 46.19211 | 43.73464 | 39995 ft | 442 kts | 193° |
| 2026-05-04 17:26 | 46.07043 | 43.69305 | 39998 ft | 441 kts | 197° |
| 2026-05-04 17:26 | 45.98875 | 43.63222 | 39992 ft | 443 kts | 217° |
| 2026-05-04 17:27 | 45.94520 | 43.56975 | 39996 ft | 446 kts | 229° |
| 2026-05-04 17:28 | 45.86483 | 43.42855 | 39994 ft | 447 kts | 229° |
| 2026-05-04 17:29 | 45.74571 | 43.22068 | 39993 ft | 448 kts | 228° |
| 2026-05-04 17:31 | 45.64585 | 43.04703 | 39997 ft | 448 kts | 228° |
| 2026-05-04 17:32 | 45.54677 | 42.87576 | 39988 ft | 448 kts | 228° |
| 2026-05-04 17:33 | 45.46655 | 42.73786 | 39983 ft | 449 kts | 228° |
| 2026-05-04 17:34 | 45.38908 | 42.59668 | 39977 ft | 450 kts | 228° |
| 2026-05-04 17:35 | 45.28935 | 42.42547 | 39986 ft | 450 kts | 228° |
| 2026-05-04 17:36 | 45.24945 | 42.35726 | 39974 ft | 450 kts | 228° |
| 2026-05-04 17:36 | 45.20951 | 42.28916 | 39981 ft | 450 kts | 227° |
| 2026-05-04 17:37 | 45.16943 | 42.22098 | 39976 ft | 451 kts | 227° |
| 2026-05-04 17:37 | 45.12869 | 42.15359 | 39979 ft | 450 kts | 223° |
| 2026-05-04 17:38 | 45.07925 | 42.09871 | 39981 ft | 445 kts | 208° |
| 2026-05-04 17:38 | 45.02390 | 42.05965 | 39977 ft | 444 kts | 204° |
| 2026-05-04 17:39 | 44.94053 | 42.00321 | 39960 ft | 444 kts | 203° |
| 2026-05-04 17:39 | 44.88444 | 41.96533 | 39955 ft | 444 kts | 203° |
| 2026-05-04 17:40 | 44.83023 | 41.92414 | 39960 ft | 447 kts | 213° |
| 2026-05-04 17:40 | 44.78333 | 41.86674 | 39962 ft | 450 kts | 220° |
| 2026-05-04 17:41 | 44.73774 | 41.80698 | 39986 ft | 450 kts | 220° |
| 2026-05-04 17:41 | 44.69203 | 41.74724 | 39967 ft | 450 kts | 220° |
| 2026-05-04 17:42 | 44.64623 | 41.68751 | 39963 ft | 451 kts | 220° |
| 2026-05-04 17:42 | 44.59994 | 41.62729 | 39966 ft | 451 kts | 220° |
| 2026-05-04 17:43 | 44.55398 | 41.56763 | 39967 ft | 452 kts | 221° |
| 2026-05-04 17:43 | 44.50797 | 41.50806 | 39956 ft | 452 kts | 220° |
| 2026-05-04 17:44 | 44.46194 | 41.44862 | 39943 ft | 452 kts | 220° |
| 2026-05-04 17:44 | 44.41592 | 41.38933 | 39955 ft | 451 kts | 220° |
| 2026-05-04 17:45 | 44.36970 | 41.32990 | 39948 ft | 452 kts | 220° |
| 2026-05-04 17:45 | 44.32326 | 41.27035 | 39964 ft | 452 kts | 220° |
| 2026-05-04 17:46 | 44.29997 | 41.24052 | 39712 ft | 451 kts | 220° |
| 2026-05-04 17:46 | 44.27684 | 41.21093 | 39198 ft | 448 kts | 220° |
| 2026-05-04 17:46 | 44.25300 | 41.18046 | 38629 ft | 445 kts | 220° |
| 2026-05-04 17:46 | 44.22947 | 41.15043 | 37996 ft | 445 kts | 219° |
| 2026-05-04 17:47 | 44.20616 | 41.12071 | 37414 ft | 444 kts | 219° |
| 2026-05-04 17:47 | 44.18272 | 41.09087 | 36806 ft | 443 kts | 219° |
| 2026-05-04 17:47 | 44.15907 | 41.06078 | 36190 ft | 442 kts | 218° |
| 2026-05-04 17:47 | 44.13527 | 41.03054 | 35642 ft | 442 kts | 218° |
| 2026-05-04 17:48 | 44.11255 | 41.00172 | 35057 ft | 448 kts | 217° |
| 2026-05-04 17:48 | 44.08838 | 40.97114 | 34250 ft | 458 kts | 217° |
| 2026-05-04 17:48 | 44.06364 | 40.93981 | 33720 ft | 449 kts | 217° |
| 2026-05-04 17:48 | 44.04065 | 40.91068 | 33066 ft | 446 kts | 217° |
| 2026-05-04 17:49 | 44.01783 | 40.88184 | 32532 ft | 441 kts | 218° |
| 2026-05-04 17:49 | 43.99501 | 40.85303 | 31942 ft | 437 kts | 218° |
| 2026-05-04 17:49 | 43.97169 | 40.82362 | 31340 ft | 434 kts | 218° |
| 2026-05-04 17:49 | 43.94912 | 40.79519 | 30744 ft | 432 kts | 218° |
| 2026-05-04 17:50 | 43.92644 | 40.76671 | 30160 ft | 446 kts | 218° |
| 2026-05-04 17:50 | 43.90295 | 40.73720 | 29566 ft | 458 kts | 219° |
| 2026-05-04 17:50 | 43.88139 | 40.70312 | 28948 ft | 469 kts | 233° |
| 2026-05-04 17:50 | 43.86599 | 40.66266 | 28280 ft | 477 kts | 244° |
| 2026-05-04 17:51 | 43.85271 | 40.62056 | 27636 ft | 476 kts | 244° |
| 2026-05-04 17:51 | 43.83935 | 40.57847 | 26995 ft | 474 kts | 244° |
| 2026-05-04 17:51 | 43.82617 | 40.53707 | 26386 ft | 470 kts | 244° |
| 2026-05-04 17:51 | 43.81304 | 40.49590 | 25764 ft | 465 kts | 244° |
| 2026-05-04 17:52 | 43.80009 | 40.45533 | 25149 ft | 460 kts | 244° |
| 2026-05-04 17:52 | 43.78726 | 40.41521 | 24525 ft | 456 kts | 244° |
| 2026-05-04 17:52 | 43.77455 | 40.37555 | 23960 ft | 451 kts | 244° |
| 2026-05-04 17:52 | 43.76187 | 40.33609 | 23348 ft | 447 kts | 243° |
| 2026-05-04 17:53 | 43.74908 | 40.29632 | 22757 ft | 442 kts | 243° |
| 2026-05-04 17:53 | 43.73666 | 40.25775 | 22161 ft | 439 kts | 243° |
| 2026-05-04 17:53 | 43.72416 | 40.21901 | 21588 ft | 433 kts | 243° |
| 2026-05-04 17:53 | 43.71169 | 40.18046 | 20999 ft | 430 kts | 243° |
| 2026-05-04 17:54 | 43.69865 | 40.14386 | 20415 ft | 422 kts | 235° |
| 2026-05-04 17:54 | 43.68036 | 40.11287 | 19832 ft | 409 kts | 219° |
| 2026-05-04 17:54 | 43.65732 | 40.08987 | 19357 ft | 399 kts | 205° |
| 2026-05-04 17:54 | 43.63195 | 40.07309 | 18909 ft | 395 kts | 200° |
| 2026-05-04 17:55 | 43.60707 | 40.05753 | 18488 ft | 392 kts | 200° |
| 2026-05-04 17:55 | 43.58237 | 40.04203 | 18088 ft | 390 kts | 200° |
| 2026-05-04 17:55 | 43.55729 | 40.02630 | 17619 ft | 385 kts | 201° |
| 2026-05-04 17:55 | 43.53258 | 40.01082 | 17213 ft | 381 kts | 201° |
| 2026-05-04 17:56 | 43.50841 | 39.99570 | 16791 ft | 377 kts | 201° |
| 2026-05-04 17:56 | 43.48359 | 39.98018 | 16510 ft | 374 kts | 201° |
| 2026-05-04 17:56 | 43.45936 | 39.96518 | 16049 ft | 368 kts | 200° |
| 2026-05-04 17:56 | 43.43547 | 39.95321 | 15651 ft | 364 kts | 196° |
| 2026-05-04 17:57 | 43.41123 | 39.94221 | 15178 ft | 360 kts | 197° |
| 2026-05-04 17:57 | 43.38748 | 39.93139 | 14658 ft | 356 kts | 197° |
| 2026-05-04 17:57 | 43.36420 | 39.92079 | 14223 ft | 352 kts | 197° |
| 2026-05-04 17:57 | 43.34088 | 39.91019 | 13777 ft | 346 kts | 198° |
| 2026-05-04 17:58 | 43.31759 | 39.89960 | 13329 ft | 338 kts | 198° |
| 2026-05-04 17:58 | 43.29519 | 39.88942 | 12893 ft | 331 kts | 198° |
| 2026-05-04 17:58 | 43.27294 | 39.87933 | 12471 ft | 323 kts | 198° |
| 2026-05-04 17:58 | 43.25121 | 39.86948 | 12068 ft | 316 kts | 199° |
| 2026-05-04 17:59 | 43.23010 | 39.85992 | 11639 ft | 310 kts | 199° |
| 2026-05-04 17:59 | 43.20975 | 39.85071 | 11268 ft | 303 kts | 199° |
| 2026-05-04 17:59 | 43.16929 | 39.83243 | 10481 ft | 292 kts | 200° |
| 2026-05-04 18:00 | 43.14975 | 39.82360 | 10098 ft | 286 kts | 200° |
| 2026-05-04 18:00 | 43.13063 | 39.81497 | 9743 ft | 283 kts | 200° |
| 2026-05-04 18:00 | 43.11121 | 39.80620 | 9342 ft | 284 kts | 200° |
| 2026-05-04 18:00 | 43.09216 | 39.79761 | 9004 ft | 283 kts | 200° |
| 2026-05-04 18:01 | 43.07407 | 39.78723 | 8607 ft | 283 kts | 214° |
| 2026-05-04 18:01 | 43.05990 | 39.76913 | 8136 ft | 280 kts | 237° |
| 2026-05-04 18:01 | 43.05234 | 39.74494 | 7808 ft | 270 kts | 260° |
| 2026-05-04 18:02 | 43.05712 | 39.69434 | 7342 ft | 254 kts | 289° |
| 2026-05-04 18:02 | 43.06235 | 39.67178 | 7178 ft | 244 kts | 289° |
| 2026-05-04 18:02 | 43.06741 | 39.64972 | 7014 ft | 237 kts | 289° |
| 2026-05-04 18:02 | 43.07241 | 39.62797 | 6841 ft | 238 kts | 289° |
| 2026-05-04 18:03 | 43.07743 | 39.60608 | 6701 ft | 238 kts | 289° |
| 2026-05-04 18:03 | 43.08242 | 39.58445 | 6501 ft | 239 kts | 289° |
| 2026-05-04 18:03 | 43.08744 | 39.56266 | 6348 ft | 237 kts | 289° |
| 2026-05-04 18:03 | 43.09240 | 39.54116 | 6174 ft | 237 kts | 289° |
| 2026-05-04 18:04 | 43.09736 | 39.51958 | 6015 ft | 236 kts | 289° |
| 2026-05-04 18:04 | 43.10243 | 39.49771 | 6003 ft | 236 kts | 290° |
| 2026-05-04 18:04 | 43.12418 | 39.46632 | 6001 ft | 234 kts | 342° |
| 2026-05-04 18:05 | 43.14063 | 39.46403 | 6012 ft | 231 kts | 4° |
| 2026-05-04 18:05 | 43.15644 | 39.46589 | 6017 ft | 218 kts | 5° |
| 2026-05-04 18:05 | 43.17192 | 39.46782 | 6018 ft | 215 kts | 6° |
| 2026-05-04 18:05 | 43.18681 | 39.46972 | 6013 ft | 214 kts | 5° |
| 2026-05-04 18:06 | 43.21701 | 39.47323 | 6007 ft | 214 kts | 5° |
| 2026-05-04 18:06 | 43.23194 | 39.47490 | 5996 ft | 213 kts | 5° |
| 2026-05-04 18:06 | 43.24699 | 39.47651 | 5996 ft | 212 kts | 5° |
| 2026-05-04 18:07 | 43.26221 | 39.47809 | 5992 ft | 212 kts | 7° |
| 2026-05-04 18:07 | 43.27609 | 39.48478 | 5962 ft | 207 kts | 36° |
| 2026-05-04 18:07 | 43.28498 | 39.49996 | 5628 ft | 209 kts | 69° |
| 2026-05-04 18:07 | 43.28659 | 39.51984 | 5289 ft | 212 kts | 93° |
| 2026-05-04 18:08 | 43.28544 | 39.54025 | 4982 ft | 212 kts | 93° |
| 2026-05-04 18:08 | 43.28440 | 39.56034 | 4675 ft | 212 kts | 93° |
| 2026-05-04 18:08 | 43.28336 | 39.58054 | 4386 ft | 210 kts | 93° |
| 2026-05-04 18:08 | 43.28231 | 39.60073 | 4080 ft | 210 kts | 93° |
| 2026-05-04 18:09 | 43.28029 | 39.63899 | 3731 ft | 203 kts | 93° |
| 2026-05-04 18:09 | 43.27821 | 39.67859 | 3464 ft | 191 kts | 93° |
| 2026-05-04 18:10 | 43.27723 | 39.69694 | 3117 ft | 187 kts | 93° |
| 2026-05-04 18:10 | 43.27624 | 39.71569 | 2719 ft | 185 kts | 93° |
| 2026-05-04 18:10 | 43.27530 | 39.73343 | 2357 ft | 182 kts | 94° |
| 2026-05-04 18:10 | 43.27447 | 39.75063 | 2038 ft | 175 kts | 92° |
| 2026-05-04 18:11 | 43.27101 | 39.76615 | 1980 ft | 164 kts | 120° |
| 2026-05-04 18:11 | 43.26680 | 39.78079 | 1973 ft | 160 kts | 90° |
| 2026-05-04 18:11 | 43.26985 | 39.79529 | 1989 ft | 158 kts | 68° |
| 2026-05-04 18:11 | 43.27437 | 39.80946 | 2000 ft | 163 kts | 66° |
| 2026-05-04 18:12 | 43.27945 | 39.82382 | 1983 ft | 168 kts | 58° |
| 2026-05-04 18:12 | 43.28775 | 39.83555 | 1989 ft | 171 kts | 37° |
| 2026-05-04 18:12 | 43.29818 | 39.84384 | 1997 ft | 172 kts | 28° |
| 2026-05-04 18:12 | 43.30916 | 39.85123 | 1997 ft | 173 kts | 28° |
| 2026-05-04 18:13 | 43.31987 | 39.85878 | 1992 ft | 173 kts | 29° |
| 2026-05-04 18:13 | 43.33054 | 39.86667 | 1986 ft | 169 kts | 30° |
| 2026-05-04 18:13 | 43.35063 | 39.88178 | 1817 ft | 146 kts | 30° |
| 2026-05-04 18:14 | 43.35946 | 39.88839 | 1641 ft | 137 kts | 31° |
| 2026-05-04 18:14 | 43.36783 | 39.89467 | 1458 ft | 134 kts | 31° |
| 2026-05-04 18:14 | 43.37609 | 39.90086 | 1295 ft | 133 kts | 31° |
| 2026-05-04 18:15 | 43.39259 | 39.91325 | 958 ft | 132 kts | 31° |
| 2026-05-04 18:15 | 43.40892 | 39.92550 | 632 ft | 132 kts | 32° |
| 2026-05-04 18:15 | 43.41705 | 39.93159 | 444 ft | 133 kts | 32° |
| 2026-05-04 18:16 | 43.42526 | 39.93773 | 253 ft | 138 kts | 32° |
| 2026-05-04 18:16 | 43.43338 | 39.94383 | 97 ft | 127 kts | 32° |
| 2026-05-04 18:16 | 43.44050 | 39.94928 | 54 ft | 103 kts | 26° |
| 2026-05-04 18:17 | 43.44843 | 39.95517 | 64 ft | 44 kts | 29° |
| 2026-05-04 18:17 | 43.44934 | 39.95578 | 67 ft | 7 kts | 26° |
| 2026-05-04 18:17 | 43.45008 | 39.95545 | 67 ft | 0 kts | 334° |
| 2026-05-04 18:19 | 43.45047 | 39.95518 | 68 ft | 5 kts | 321° |
| 2026-05-04 18:19 | 43.45054 | 39.95446 | 67 ft | 11 kts | 246° |
| 2026-05-04 18:19 | 43.45019 | 39.95344 | 64 ft | 14 kts | 245° |
| 2026-05-04 18:20 | 43.44966 | 39.95194 | 61 ft | 13 kts | 243° |
| 2026-05-04 18:20 | 43.44915 | 39.95053 | 60 ft | 19 kts | 244° |
| 2026-05-04 18:20 | 43.44848 | 39.94860 | 57 ft | 24 kts | 245° |
| 2026-05-04 18:20 | 43.44770 | 39.94628 | 56 ft | 28 kts | 246° |
| 2026-05-04 18:21 | 43.44709 | 39.94452 | 55 ft | 18 kts | 243° |
| 2026-05-04 18:21 | 43.44656 | 39.94295 | 54 ft | 8 kts | 245° |
| 2026-05-04 18:21 | 43.44631 | 39.94220 | 53 ft | 4 kts | 243° |
| 2026-05-04 18:21 | 43.44580 | 39.94207 | 51 ft | 11 kts | 153° |
| 2026-05-04 18:22 | 43.44486 | 39.94269 | 49 ft | 13 kts | 155° |
| 2026-05-04 18:22 | 43.44408 | 39.94319 | 48 ft | 14 kts | 155° |
| 2026-05-04 18:22 | 43.44330 | 39.94367 | 48 ft | 8 kts | 166° |
| 2026-05-04 18:22 | 43.44290 | 39.94357 | 48 ft | 6 kts | 197° |
| 2026-05-04 18:23 | 43.44261 | 39.94360 | 48 ft | 5 kts | 156° |
| 2026-05-04 18:23 | 43.44243 | 39.94371 | 48 ft | 0 kts | 154° |